createdAt,value
2023-02-22T00:00:46.350Z,9.93
2023-02-22T00:01:42.989Z,9.85
2023-02-22T00:02:27.174Z,9.74
2023-02-22T00:03:00.103Z,9.67
2023-02-22T00:03:35.212Z,9.60
2023-02-22T00:04:07.701Z,9.50
2023-02-22T00:04:42.157Z,9.47
2023-02-22T00:05:16.906Z,9.51
2023-02-22T00:05:48.741Z,9.38
2023-02-22T00:06:25.247Z,9.29
2023-02-22T00:07:01.385Z,9.50
2023-02-22T00:07:33.856Z,9.53
2023-02-22T00:08:10.095Z,9.52
2023-02-22T00:08:41.891Z,9.53
2023-02-22T00:09:20.410Z,9.39
2023-02-22T00:10:26.448Z,9.27
2023-02-22T00:11:04.200Z,9.23
2023-02-22T00:11:35.995Z,9.28
2023-02-22T00:12:09.704Z,9.31
2023-02-22T00:12:43.001Z,9.30
2023-02-22T00:13:15.046Z,9.29
2023-02-22T00:13:47.755Z,9.27
2023-02-22T00:14:20.618Z,9.23
2023-02-22T00:14:52.478Z,9.11
2023-02-22T00:15:27.979Z,9.09
2023-02-22T00:16:00.689Z,8.98
2023-02-22T00:16:32.628Z,8.93
2023-02-22T00:17:04.766Z,8.95
2023-02-22T00:17:36.853Z,8.95
2023-02-22T00:18:13.992Z,8.94
2023-02-22T00:18:46.139Z,8.84
2023-02-22T00:19:17.985Z,8.90
2023-02-22T00:19:50.361Z,8.86
2023-02-22T00:20:23.536Z,8.89
2023-02-22T00:20:56.338Z,8.90
2023-02-22T00:21:28.123Z,8.84
2023-02-22T00:22:00.388Z,8.81
2023-02-22T00:22:32.156Z,8.78
2023-02-22T00:23:07.266Z,8.78
2023-02-22T00:23:46.651Z,8.76
2023-02-22T00:24:23.430Z,8.72
2023-02-22T00:24:57.515Z,8.71
2023-02-22T00:25:29.756Z,8.75
2023-02-22T00:26:01.806Z,8.76
2023-02-22T00:26:33.870Z,8.70
2023-02-22T00:27:05.670Z,8.68
2023-02-22T00:27:37.752Z,8.68
2023-02-22T00:28:09.561Z,8.63
2023-02-22T00:28:43.261Z,8.64
2023-02-22T00:29:15.091Z,8.67
2023-02-22T00:29:46.961Z,8.69
2023-02-22T00:30:23.291Z,8.67
2023-02-22T00:30:55.281Z,8.64
2023-02-22T00:31:27.170Z,8.60
2023-02-22T00:31:59.188Z,8.61
2023-02-22T00:32:31.197Z,8.62
2023-02-22T00:33:03.859Z,8.57
2023-02-22T00:33:38.685Z,8.53
2023-02-22T00:34:10.677Z,8.49
2023-02-22T00:34:43.794Z,8.45
2023-02-22T00:35:17.908Z,8.44
2023-02-22T00:35:49.854Z,8.42
2023-02-22T00:36:21.655Z,8.40
2023-02-22T00:36:53.438Z,8.39
2023-02-22T00:37:25.493Z,8.38
2023-02-22T00:38:00.308Z,8.33
2023-02-22T00:38:32.134Z,8.35
2023-02-22T00:39:04.036Z,8.36
2023-02-22T00:39:35.817Z,8.43
2023-02-22T00:40:15.018Z,8.45
2023-02-22T00:40:46.950Z,8.44
2023-02-22T00:41:28.178Z,8.40
2023-02-22T00:42:00.032Z,8.39
2023-02-22T00:42:32.037Z,8.35
2023-02-22T00:43:05.957Z,8.35
2023-02-22T00:43:38.851Z,8.37
2023-02-22T00:44:11.179Z,8.40
2023-02-22T00:44:43.023Z,8.41
2023-02-22T00:45:19.510Z,8.42
2023-02-22T00:45:51.362Z,8.41
2023-02-22T00:46:23.153Z,8.39
2023-02-22T00:46:54.997Z,8.36
2023-02-22T00:47:27.593Z,8.34
2023-02-22T00:48:00.180Z,8.29
2023-02-22T00:48:31.962Z,8.24
2023-02-22T00:49:05.574Z,8.25
2023-02-22T00:49:38.218Z,8.25
2023-02-22T00:50:10.687Z,8.24
2023-02-22T00:50:42.705Z,8.22
2023-02-22T00:51:14.754Z,8.23
2023-02-22T00:51:46.758Z,8.15
2023-02-22T00:52:37.820Z,8.14
2023-02-22T00:53:11.322Z,8.18
2023-02-22T00:53:43.221Z,8.20
2023-02-22T00:54:16.084Z,8.19
2023-02-22T00:54:47.985Z,8.17
2023-02-22T00:55:31.279Z,8.15
2023-02-22T00:56:03.046Z,8.11
2023-02-22T00:56:35.481Z,8.13
2023-02-22T00:57:07.331Z,8.15
2023-02-22T00:57:40.278Z,8.20
2023-02-22T00:58:12.964Z,8.23
2023-02-22T00:58:44.890Z,8.24
2023-02-22T00:59:16.877Z,8.21
2023-02-22T00:59:48.810Z,8.20
2023-02-22T01:00:30.474Z,8.14
2023-02-22T01:01:02.302Z,8.12
2023-02-22T01:01:34.152Z,8.19
2023-02-22T01:02:06.025Z,8.21
2023-02-22T01:02:40.518Z,8.22
2023-02-22T01:03:45.386Z,8.15
2023-02-22T01:04:18.466Z,8.13
2023-02-22T01:04:50.567Z,8.14
2023-02-22T01:05:27.244Z,8.17
2023-02-22T01:05:59.125Z,8.16
2023-02-22T01:06:30.973Z,8.14
2023-02-22T01:07:03.400Z,8.13
2023-02-22T01:07:35.501Z,8.12
2023-02-22T01:08:10.203Z,8.12
2023-02-22T01:08:45.788Z,8.10
2023-02-22T01:09:18.597Z,8.06
2023-02-22T01:09:51.425Z,8.01
2023-02-22T01:10:26.090Z,7.97
2023-02-22T01:10:58.052Z,7.99
2023-02-22T01:11:29.995Z,8.00
2023-02-22T01:12:03.002Z,7.96
2023-02-22T01:12:35.292Z,7.98
2023-02-22T01:13:12.646Z,7.98
2023-02-22T01:13:47.577Z,7.96
2023-02-22T01:14:21.247Z,7.96
2023-02-22T01:14:57.201Z,7.96
2023-02-22T01:15:30.871Z,7.95
2023-02-22T01:16:03.335Z,7.93
2023-02-22T01:16:35.735Z,7.92
2023-02-22T01:17:07.792Z,7.97
2023-02-22T01:17:40.381Z,8.01
2023-02-22T01:18:13.090Z,8.01
2023-02-22T01:18:44.962Z,7.99
2023-02-22T01:19:17.221Z,7.92
2023-02-22T01:19:49.134Z,7.92
2023-02-22T01:20:23.214Z,7.90
2023-02-22T01:20:54.998Z,7.88
2023-02-22T01:21:26.810Z,7.87
2023-02-22T01:21:59.028Z,7.86
2023-02-22T01:22:30.796Z,7.91
2023-02-22T01:23:34.975Z,7.94
2023-02-22T01:24:07.137Z,7.93
2023-02-22T01:24:38.931Z,7.92
2023-02-22T01:25:12.741Z,7.85
2023-02-22T01:25:45.933Z,7.85
2023-02-22T01:26:17.927Z,7.86
2023-02-22T01:26:52.189Z,7.87
2023-02-22T01:27:24.204Z,7.86
2023-02-22T01:27:58.486Z,7.83
2023-02-22T01:29:03.359Z,7.80
2023-02-22T01:29:35.142Z,7.81
2023-02-22T01:30:08.989Z,7.85
2023-02-22T01:30:41.121Z,7.90
2023-02-22T01:32:09.175Z,7.85
2023-02-22T01:32:42.829Z,7.88
2023-02-22T01:33:16.007Z,7.88
2023-02-22T01:33:50.909Z,7.86
2023-02-22T01:34:25.746Z,7.86
2023-02-22T01:34:57.532Z,7.83
2023-02-22T01:35:32.377Z,7.80
2023-02-22T01:36:04.450Z,7.76
2023-02-22T01:36:36.352Z,7.74
2023-02-22T01:37:08.261Z,7.72
2023-02-22T01:37:40.861Z,7.69
2023-02-22T01:38:14.159Z,7.68
2023-02-22T01:38:45.930Z,7.69
2023-02-22T01:39:18.447Z,7.67
2023-02-22T01:39:50.204Z,7.68
2023-02-22T01:40:34.559Z,7.68
2023-02-22T01:41:06.639Z,7.67
2023-02-22T01:42:11.397Z,7.65
2023-02-22T01:42:45.224Z,7.63
2023-02-22T01:43:24.859Z,7.62
2023-02-22T01:43:56.650Z,7.60
2023-02-22T01:44:35.136Z,7.51
2023-02-22T01:45:34.655Z,7.48
2023-02-22T01:46:18.952Z,7.47
2023-02-22T01:46:50.784Z,7.47
2023-02-22T01:47:23.785Z,7.45
2023-02-22T01:48:04.682Z,7.53
2023-02-22T01:48:44.632Z,7.53
2023-02-22T01:49:16.825Z,7.49
2023-02-22T01:49:52.403Z,7.52
2023-02-22T01:50:24.662Z,7.47
2023-02-22T01:50:59.370Z,7.44
2023-02-22T01:51:39.135Z,7.43
2023-02-22T01:52:17.373Z,7.44
2023-02-22T01:52:49.669Z,7.45
2023-02-22T01:53:30.478Z,7.41
2023-02-22T01:54:10.020Z,7.35
2023-02-22T01:54:47.541Z,7.41
2023-02-22T01:55:20.115Z,7.39
2023-02-22T01:55:55.061Z,7.43
2023-02-22T01:56:31.054Z,7.38
2023-02-22T01:57:38.462Z,7.39
2023-02-22T01:58:10.532Z,7.35
2023-02-22T01:58:47.019Z,7.33
2023-02-22T01:59:20.787Z,7.31
2023-02-22T01:59:59.315Z,7.35
2023-02-22T02:00:32.296Z,7.33
2023-02-22T02:01:05.481Z,7.34
2023-02-22T02:01:39.865Z,7.32
2023-02-22T02:02:14.244Z,7.38
2023-02-22T02:02:53.123Z,7.39
2023-02-22T02:03:30.329Z,7.35
2023-02-22T02:04:05.822Z,7.32
2023-02-22T02:04:38.291Z,7.30
2023-02-22T02:05:10.964Z,7.33
2023-02-22T02:05:44.357Z,7.35
2023-02-22T02:06:18.506Z,7.28
2023-02-22T02:06:50.330Z,7.30
2023-02-22T02:07:24.508Z,7.34
2023-02-22T02:07:56.399Z,7.36
2023-02-22T02:08:42.586Z,7.40
2023-02-22T02:09:19.998Z,7.42
2023-02-22T02:09:59.296Z,7.41
2023-02-22T02:10:32.259Z,7.32
2023-02-22T02:11:09.054Z,7.27
2023-02-22T02:11:42.576Z,7.25
2023-02-22T02:12:17.357Z,7.27
2023-02-22T02:12:51.188Z,7.32
2023-02-22T02:13:23.059Z,7.26
2023-02-22T02:14:28.056Z,7.19
2023-02-22T02:15:37.158Z,7.19
2023-02-22T02:16:09.255Z,7.19
2023-02-22T02:16:52.007Z,7.18
2023-02-22T02:17:24.106Z,7.17
2023-02-22T02:18:00.831Z,7.14
2023-02-22T02:18:32.823Z,7.13
2023-02-22T02:19:16.191Z,7.16
2023-02-22T02:20:07.338Z,7.18
2023-02-22T02:20:55.464Z,7.15
2023-02-22T02:21:55.220Z,7.17
2023-02-22T02:22:42.924Z,7.17
2023-02-22T02:23:33.320Z,7.10
2023-02-22T02:24:43.749Z,7.13
2023-02-22T02:25:39.723Z,7.17
2023-02-22T02:26:32.421Z,7.14
2023-02-22T02:27:17.022Z,7.11
2023-02-22T02:28:10.275Z,7.12
2023-02-22T02:29:08.192Z,7.09
2023-02-22T02:30:04.219Z,7.16
2023-02-22T02:30:57.032Z,7.14
2023-02-22T02:32:29.147Z,7.09
2023-02-22T02:33:26.986Z,7.16
2023-02-22T02:34:29.439Z,7.12
2023-02-22T02:35:13.652Z,7.16
2023-02-22T02:36:00.347Z,7.10
2023-02-22T02:37:23.927Z,7.09
2023-02-22T02:38:15.931Z,7.10
2023-02-22T02:39:04.192Z,7.05
2023-02-22T02:39:54.120Z,7.06
2023-02-22T02:40:28.740Z,7.02
2023-02-22T02:41:19.510Z,6.99
2023-02-22T02:41:51.221Z,6.94
2023-02-22T02:42:37.040Z,6.95
2023-02-22T02:43:14.642Z,6.93
2023-02-22T02:43:55.919Z,6.80
2023-02-22T02:44:49.612Z,6.73
2023-02-22T02:46:05.808Z,6.72
2023-02-22T02:46:48.474Z,6.82
2023-02-22T02:47:29.141Z,6.76
2023-02-22T02:48:06.064Z,6.73
2023-02-22T02:48:46.721Z,6.77
2023-02-22T02:49:27.272Z,6.87
2023-02-22T02:50:39.251Z,6.77
2023-02-22T02:51:14.731Z,6.85
2023-02-22T02:51:52.670Z,6.83
2023-02-22T02:52:27.551Z,6.83
2023-02-22T02:53:02.945Z,6.82
2023-02-22T02:53:39.767Z,6.81
2023-02-22T02:54:14.404Z,6.79
2023-02-22T02:54:47.269Z,6.81
2023-02-22T02:55:19.409Z,6.78
2023-02-22T02:55:51.236Z,6.77
2023-02-22T02:56:23.642Z,6.82
2023-02-22T02:56:58.040Z,6.82
2023-02-22T02:57:29.858Z,6.80
2023-02-22T02:58:01.645Z,6.82
2023-02-22T02:58:34.008Z,6.82
2023-02-22T02:59:29.431Z,6.73
2023-02-22T03:00:03.212Z,6.71
2023-02-22T03:00:41.305Z,6.77
2023-02-22T03:01:19.136Z,6.83
2023-02-22T03:02:14.528Z,6.82
2023-02-22T03:02:55.280Z,6.81
2023-02-22T03:03:51.109Z,6.87
2023-02-22T03:05:00.083Z,6.89
2023-02-22T03:06:16.570Z,6.90
2023-02-22T03:07:17.374Z,6.91
2023-02-22T03:08:26.065Z,6.90
2023-02-22T03:09:13.886Z,6.89
2023-02-22T03:10:42.861Z,6.77
2023-02-22T03:11:19.890Z,6.74
2023-02-22T03:12:02.341Z,6.83
2023-02-22T03:12:58.745Z,6.88
2023-02-22T03:13:36.491Z,6.94
2023-02-22T03:14:22.465Z,6.96
2023-02-22T03:15:27.416Z,6.96
2023-02-22T03:16:13.208Z,6.88
2023-02-22T03:16:51.485Z,6.83
2023-02-22T03:17:46.340Z,6.84
2023-02-22T03:19:08.898Z,6.89
2023-02-22T03:19:50.220Z,6.90
2023-02-22T03:20:31.800Z,6.92
2023-02-22T03:21:27.794Z,6.93
2023-02-22T03:22:09.132Z,6.94
2023-02-22T03:22:50.808Z,6.97
2023-02-22T03:23:50.002Z,7.00
2023-02-22T03:25:20.381Z,6.99
2023-02-22T03:26:01.448Z,7.02
2023-02-22T03:26:42.880Z,7.02
2023-02-22T03:27:28.980Z,6.98
2023-02-22T03:28:07.460Z,6.97
2023-02-22T03:28:43.279Z,6.99
2023-02-22T03:29:18.683Z,7.01
2023-02-22T03:30:46.689Z,7.04
2023-02-22T03:31:29.035Z,7.01
2023-02-22T03:32:06.140Z,7.04
2023-02-22T03:32:42.948Z,7.02
2023-02-22T03:33:36.434Z,6.97
2023-02-22T03:34:21.015Z,6.96
2023-02-22T03:35:08.112Z,6.97
2023-02-22T03:35:49.192Z,7.03
2023-02-22T03:37:00.850Z,7.07
2023-02-22T03:37:38.420Z,7.05
2023-02-22T03:38:13.121Z,6.97
2023-02-22T03:39:43.497Z,7.03
2023-02-22T03:40:59.352Z,7.05
2023-02-22T03:41:38.714Z,7.00
2023-02-22T03:42:18.655Z,7.01
2023-02-22T03:42:59.245Z,6.96
2023-02-22T03:43:42.745Z,6.94
2023-02-22T03:44:22.274Z,6.95
2023-02-22T03:44:58.328Z,6.99
2023-02-22T03:45:33.722Z,7.01
2023-02-22T03:46:09.014Z,7.02
2023-02-22T03:46:42.911Z,6.96
2023-02-22T03:47:22.828Z,6.97
2023-02-22T03:48:07.548Z,7.01
2023-02-22T03:48:57.778Z,7.00
2023-02-22T03:49:30.043Z,7.01
2023-02-22T03:50:12.811Z,6.99
2023-02-22T03:50:44.773Z,6.97
2023-02-22T03:51:18.241Z,6.96
2023-02-22T03:51:50.775Z,6.98
2023-02-22T03:52:25.819Z,7.00
2023-02-22T03:53:01.157Z,6.98
2023-02-22T03:53:37.295Z,6.96
2023-02-22T03:54:42.152Z,6.96
2023-02-22T03:55:17.819Z,6.95
2023-02-22T03:55:54.049Z,6.91
2023-02-22T03:57:05.700Z,6.92
2023-02-22T03:57:49.948Z,6.92
2023-02-22T03:58:24.678Z,6.89
2023-02-22T03:58:56.729Z,6.91
2023-02-22T03:59:29.519Z,6.92
2023-02-22T04:00:05.860Z,6.93
2023-02-22T04:00:38.336Z,6.96
2023-02-22T04:01:11.116Z,6.96
2023-02-22T04:01:42.935Z,6.96
2023-02-22T04:02:14.790Z,6.92
2023-02-22T04:02:46.709Z,6.85
2023-02-22T04:03:22.122Z,6.85
2023-02-22T04:03:54.095Z,6.85
2023-02-22T04:04:26.802Z,6.87
2023-02-22T04:04:58.823Z,6.89
2023-02-22T04:05:30.837Z,6.91
2023-02-22T04:06:03.807Z,6.89
2023-02-22T04:06:35.783Z,6.82
2023-02-22T04:07:07.677Z,6.81
2023-02-22T04:07:39.438Z,6.77
2023-02-22T04:08:11.369Z,6.76
2023-02-22T04:08:44.168Z,6.76
2023-02-22T04:09:17.319Z,6.72
2023-02-22T04:09:49.216Z,6.69
2023-02-22T04:10:21.484Z,6.70
2023-02-22T04:11:26.077Z,6.69
2023-02-22T04:12:01.287Z,6.72
2023-02-22T04:12:33.617Z,6.72
2023-02-22T04:13:10.429Z,6.67
2023-02-22T04:13:42.277Z,6.69
2023-02-22T04:14:14.253Z,6.71
2023-02-22T04:14:46.013Z,6.76
2023-02-22T04:15:21.902Z,6.80
2023-02-22T04:15:54.200Z,6.83
2023-02-22T04:16:25.998Z,6.78
2023-02-22T04:16:58.409Z,6.74
2023-02-22T04:17:30.388Z,6.71
2023-02-22T04:18:02.369Z,6.71
2023-02-22T04:18:34.173Z,6.70
2023-02-22T04:19:06.432Z,6.69
2023-02-22T04:19:38.386Z,6.70
2023-02-22T04:20:11.783Z,6.73
2023-02-22T04:20:44.869Z,6.74
2023-02-22T04:21:16.926Z,6.76
2023-02-22T04:21:48.900Z,6.75
2023-02-22T04:22:20.672Z,6.71
2023-02-22T04:22:53.602Z,6.65
2023-02-22T04:23:27.051Z,6.67
2023-02-22T04:23:59.431Z,6.70
2023-02-22T04:25:03.912Z,6.69
2023-02-22T04:25:35.842Z,6.66
2023-02-22T04:26:07.609Z,6.70
2023-02-22T04:26:39.417Z,6.71
2023-02-22T04:27:11.868Z,6.70
2023-02-22T04:27:43.663Z,6.67
2023-02-22T04:28:15.596Z,6.66
2023-02-22T04:28:47.596Z,6.70
2023-02-22T04:29:19.401Z,6.72
2023-02-22T04:29:51.190Z,6.69
2023-02-22T04:30:24.134Z,6.68
2023-02-22T04:30:55.936Z,6.69
2023-02-22T04:31:27.767Z,6.65
2023-02-22T04:31:59.622Z,6.66
2023-02-22T04:32:31.411Z,6.67
2023-02-22T04:33:03.190Z,6.70
2023-02-22T04:33:35.047Z,6.72
2023-02-22T04:34:08.309Z,6.72
2023-02-22T04:34:40.087Z,6.70
2023-02-22T04:35:11.945Z,6.69
2023-02-22T04:35:43.865Z,6.69
2023-02-22T04:36:16.224Z,6.67
2023-02-22T04:36:48.012Z,6.66
2023-02-22T04:37:19.833Z,6.67
2023-02-22T04:37:51.632Z,6.69
2023-02-22T04:38:26.196Z,6.70
2023-02-22T04:38:59.418Z,6.66
2023-02-22T04:39:32.006Z,6.63
2023-02-22T04:40:08.642Z,6.65
2023-02-22T04:40:40.472Z,6.64
2023-02-22T04:41:12.246Z,6.60
2023-02-22T04:42:16.955Z,6.61
2023-02-22T04:42:50.649Z,6.58
2023-02-22T04:43:23.119Z,6.56
2023-02-22T04:43:55.074Z,6.54
2023-02-22T04:44:26.904Z,6.48
2023-02-22T04:45:01.929Z,6.49
2023-02-22T04:45:33.745Z,6.47
2023-02-22T04:46:06.528Z,6.49
2023-02-22T04:46:38.507Z,6.49
2023-02-22T04:47:44.433Z,6.47
2023-02-22T04:48:19.505Z,6.44
2023-02-22T04:48:51.330Z,6.42
2023-02-22T04:49:56.013Z,6.42
2023-02-22T04:50:28.466Z,6.40
2023-02-22T04:51:00.303Z,6.42
2023-02-22T04:52:06.350Z,6.41
2023-02-22T04:52:38.791Z,6.43
2023-02-22T04:53:44.875Z,6.36
2023-02-22T04:54:18.626Z,6.33
2023-02-22T04:54:51.930Z,6.30
2023-02-22T04:55:23.814Z,6.26
2023-02-22T04:55:57.377Z,6.23
2023-02-22T04:56:29.232Z,6.25
2023-02-22T04:57:01.590Z,6.24
2023-02-22T04:58:09.444Z,6.19
2023-02-22T04:58:41.316Z,6.15
2023-02-22T04:59:13.119Z,6.13
2023-02-22T04:59:47.910Z,6.14
2023-02-22T05:00:21.978Z,6.14
2023-02-22T05:00:54.295Z,6.21
2023-02-22T05:01:26.144Z,6.20
2023-02-22T05:01:58.051Z,6.15
2023-02-22T05:02:29.862Z,6.15
2023-02-22T05:03:01.710Z,6.12
2023-02-22T05:03:33.823Z,6.13
2023-02-22T05:04:07.235Z,6.20
2023-02-22T05:04:39.448Z,6.23
2023-02-22T05:05:11.303Z,6.23
2023-02-22T05:05:43.132Z,6.18
2023-02-22T05:06:16.310Z,6.15
2023-02-22T05:06:48.773Z,6.13
2023-02-22T05:07:20.632Z,6.18
2023-02-22T05:07:53.554Z,6.18
2023-02-22T05:08:25.352Z,6.18
2023-02-22T05:08:57.310Z,6.18
2023-02-22T05:09:29.250Z,6.18
2023-02-22T05:10:03.098Z,6.17
2023-02-22T05:10:34.875Z,6.21
2023-02-22T05:11:06.684Z,6.22
2023-02-22T05:11:38.495Z,6.23
2023-02-22T05:12:10.265Z,6.26
2023-02-22T05:12:42.136Z,6.17
2023-02-22T05:13:14.528Z,6.18
2023-02-22T05:13:46.866Z,6.21
2023-02-22T05:14:18.746Z,6.26
2023-02-22T05:14:50.547Z,6.30
2023-02-22T05:15:25.446Z,6.29
2023-02-22T05:15:57.352Z,6.31
2023-02-22T05:16:29.244Z,6.32
2023-02-22T05:17:02.708Z,6.32
2023-02-22T05:17:36.136Z,6.32
2023-02-22T05:18:08.085Z,6.31
2023-02-22T05:18:39.962Z,6.29
2023-02-22T05:19:11.750Z,6.28
2023-02-22T05:19:43.671Z,6.26
2023-02-22T05:20:27.920Z,6.21
2023-02-22T05:20:59.698Z,6.19
2023-02-22T05:21:31.502Z,6.15
2023-02-22T05:22:03.830Z,6.08
2023-02-22T05:22:37.363Z,6.04
2023-02-22T05:23:10.878Z,6.00
2023-02-22T05:23:42.806Z,6.04
2023-02-22T05:24:14.779Z,6.04
2023-02-22T05:24:46.692Z,6.03
2023-02-22T05:25:20.530Z,6.01
2023-02-22T05:25:52.878Z,5.97
2023-02-22T05:26:25.964Z,5.94
2023-02-22T05:26:57.807Z,5.96
2023-02-22T05:27:29.656Z,5.96
2023-02-22T05:28:05.700Z,6.00
2023-02-22T05:28:37.522Z,5.99
2023-02-22T05:29:09.328Z,5.98
2023-02-22T05:29:41.751Z,5.96
2023-02-22T05:30:13.717Z,5.92
2023-02-22T05:30:46.122Z,5.93
2023-02-22T05:31:18.404Z,5.92
2023-02-22T05:31:50.440Z,5.93
2023-02-22T05:32:22.274Z,5.92
2023-02-22T05:32:54.342Z,5.93
2023-02-22T05:33:26.111Z,5.93
2023-02-22T05:33:58.365Z,5.91
2023-02-22T05:34:30.948Z,5.91
2023-02-22T05:35:02.900Z,5.84
2023-02-22T05:35:35.213Z,5.83
2023-02-22T05:36:07.912Z,5.83
2023-02-22T05:36:39.683Z,5.83
2023-02-22T05:37:11.484Z,5.84
2023-02-22T05:37:43.356Z,5.80
2023-02-22T05:38:15.899Z,5.81
2023-02-22T05:38:47.698Z,5.88
2023-02-22T05:39:19.567Z,5.88
2023-02-22T05:39:51.535Z,5.86
2023-02-22T05:40:26.641Z,5.86
2023-02-22T05:40:58.526Z,5.88
2023-02-22T05:41:30.351Z,5.91
2023-02-22T05:42:02.187Z,5.92
2023-02-22T05:42:34.495Z,5.86
2023-02-22T05:43:06.275Z,5.86
2023-02-22T05:43:39.752Z,5.91
2023-02-22T05:44:11.617Z,5.90
2023-02-22T05:44:44.185Z,5.88
2023-02-22T05:45:18.531Z,5.89
2023-02-22T05:45:50.335Z,5.93
2023-02-22T05:46:22.175Z,5.93
2023-02-22T05:46:54.158Z,5.90
2023-02-22T05:47:26.573Z,5.90
2023-02-22T05:47:58.651Z,5.94
2023-02-22T05:48:31.349Z,5.93
2023-02-22T05:49:03.306Z,5.94
2023-02-22T05:49:35.118Z,5.95
2023-02-22T05:50:07.554Z,5.93
2023-02-22T05:50:39.383Z,5.95
2023-02-22T05:51:11.221Z,5.94
2023-02-22T05:51:43.056Z,5.96
2023-02-22T05:52:14.971Z,6.00
2023-02-22T05:52:48.828Z,6.02
2023-02-22T05:53:20.711Z,6.03
2023-02-22T05:53:52.697Z,6.06
2023-02-22T05:54:24.453Z,6.08
2023-02-22T05:54:56.239Z,6.08
2023-02-22T05:55:28.165Z,6.09
2023-02-22T05:55:59.996Z,6.06
2023-02-22T05:56:31.875Z,6.08
2023-02-22T05:57:03.791Z,6.08
2023-02-22T05:57:36.127Z,6.02
2023-02-22T05:58:07.985Z,6.02
2023-02-22T05:58:58.613Z,6.05
2023-02-22T05:59:30.490Z,6.04
2023-02-22T06:00:05.555Z,6.04
2023-02-22T06:00:37.361Z,6.03
2023-02-22T06:01:09.181Z,6.05
2023-02-22T06:01:41.031Z,6.07
2023-02-22T06:02:12.930Z,6.08
2023-02-22T06:02:45.132Z,6.06
2023-02-22T06:03:17.083Z,6.04
2023-02-22T06:03:50.733Z,6.08
2023-02-22T06:04:22.577Z,6.12
2023-02-22T06:04:54.466Z,6.10
2023-02-22T06:05:27.344Z,6.07
2023-02-22T06:05:59.179Z,6.11
2023-02-22T06:06:30.952Z,6.17
2023-02-22T06:07:02.782Z,6.21
2023-02-22T06:07:34.566Z,6.25
2023-02-22T06:08:08.303Z,6.23
2023-02-22T06:08:40.091Z,6.22
2023-02-22T06:09:19.335Z,6.21
2023-02-22T06:09:51.741Z,6.22
2023-02-22T06:10:24.273Z,6.24
2023-02-22T06:11:37.340Z,6.24
2023-02-22T06:12:09.586Z,6.19
2023-02-22T06:12:41.780Z,6.16
2023-02-22T06:13:13.586Z,6.18
2023-02-22T06:13:53.221Z,6.22
2023-02-22T06:15:21.523Z,6.31
2023-02-22T06:15:56.395Z,6.34
2023-02-22T06:16:32.149Z,6.30
2023-02-22T06:17:30.591Z,6.32
2023-02-22T06:18:03.134Z,6.33
2023-02-22T06:18:35.297Z,6.37
2023-02-22T06:19:07.160Z,6.41
2023-02-22T06:20:17.549Z,6.37
2023-02-22T06:20:53.223Z,6.39
2023-02-22T06:21:28.469Z,6.44
2023-02-22T06:22:03.618Z,6.46
2023-02-22T06:22:35.517Z,6.50
2023-02-22T06:23:08.084Z,6.53
2023-02-22T06:23:43.433Z,6.57
2023-02-22T06:24:19.008Z,6.56
2023-02-22T06:24:55.082Z,6.49
2023-02-22T06:25:32.131Z,6.54
2023-02-22T06:26:04.150Z,6.58
2023-02-22T06:26:36.225Z,6.62
2023-02-22T06:27:08.540Z,6.67
2023-02-22T06:27:40.586Z,6.68
2023-02-22T06:28:12.395Z,6.70
2023-02-22T06:28:44.316Z,6.72
2023-02-22T06:29:16.216Z,6.76
2023-02-22T06:30:06.655Z,6.74
2023-02-22T06:30:38.729Z,6.77
2023-02-22T06:31:10.563Z,6.77
2023-02-22T06:31:42.424Z,6.79
2023-02-22T06:32:14.988Z,6.75
2023-02-22T06:32:46.893Z,6.70
2023-02-22T06:33:18.755Z,6.62
2023-02-22T06:33:50.594Z,6.60
2023-02-22T06:34:22.719Z,6.62
2023-02-22T06:34:54.600Z,6.65
2023-02-22T06:35:26.475Z,6.63
2023-02-22T06:35:58.344Z,6.59
2023-02-22T06:36:31.818Z,6.62
2023-02-22T06:37:03.646Z,6.65
2023-02-22T06:37:36.429Z,6.61
2023-02-22T06:38:08.787Z,6.55
2023-02-22T06:38:40.608Z,6.53
2023-02-22T06:39:12.466Z,6.55
2023-02-22T06:39:44.300Z,6.52
2023-02-22T06:40:16.861Z,6.55
2023-02-22T06:40:48.671Z,6.58
2023-02-22T06:41:21.203Z,6.56
2023-02-22T06:41:55.940Z,6.52
2023-02-22T06:42:27.803Z,6.51
2023-02-22T06:43:00.102Z,6.50
2023-02-22T06:43:31.947Z,6.58
2023-02-22T06:44:03.982Z,6.60
2023-02-22T06:44:36.144Z,6.57
2023-02-22T06:45:08.876Z,6.58
2023-02-22T06:45:40.831Z,6.58
2023-02-22T06:46:12.976Z,6.55
2023-02-22T06:46:51.236Z,6.57
2023-02-22T06:47:23.067Z,6.60
2023-02-22T06:47:55.766Z,6.60
2023-02-22T06:48:27.638Z,6.60
2023-02-22T06:49:02.476Z,6.61
2023-02-22T06:49:34.430Z,6.60
2023-02-22T06:50:06.572Z,6.65
2023-02-22T06:50:38.473Z,6.69
2023-02-22T06:51:10.776Z,6.77
2023-02-22T06:51:43.642Z,6.82
2023-02-22T06:52:15.422Z,6.83
2023-02-22T06:52:48.117Z,6.86
2023-02-22T06:53:19.971Z,6.88
2023-02-22T06:53:51.941Z,6.93
2023-02-22T06:54:23.858Z,6.99
2023-02-22T06:54:55.625Z,6.95
2023-02-22T06:55:30.475Z,6.99
2023-02-22T06:56:02.948Z,6.97
2023-02-22T06:56:34.790Z,6.97
2023-02-22T06:57:06.782Z,7.00
2023-02-22T06:57:39.015Z,7.00
2023-02-22T06:58:10.836Z,7.01
2023-02-22T06:58:42.668Z,7.04
2023-02-22T06:59:14.487Z,7.08
2023-02-22T06:59:46.766Z,7.12
2023-02-22T07:00:21.097Z,7.18
2023-02-22T07:00:53.467Z,7.26
2023-02-22T07:01:25.275Z,7.28
2023-02-22T07:01:57.102Z,7.27
2023-02-22T07:02:28.957Z,7.25
2023-02-22T07:03:01.271Z,7.29
2023-02-22T07:03:33.248Z,7.38
2023-02-22T07:04:05.136Z,7.45
2023-02-22T07:04:55.565Z,7.54
2023-02-22T07:05:28.164Z,7.73
2023-02-22T07:05:59.980Z,7.83
2023-02-22T07:06:31.795Z,7.87
2023-02-22T07:07:03.797Z,7.98
2023-02-22T07:07:35.679Z,8.10
2023-02-22T07:08:08.438Z,8.22
2023-02-22T07:08:40.226Z,8.30
2023-02-22T07:09:13.118Z,8.37
2023-02-22T07:09:47.066Z,8.43
2023-02-22T07:10:27.755Z,8.52
2023-02-22T07:11:00.266Z,8.53
2023-02-22T07:11:32.369Z,8.58
2023-02-22T07:12:05.719Z,8.62
2023-02-22T07:12:37.541Z,8.67
2023-02-22T07:13:09.504Z,8.70
2023-02-22T07:13:41.300Z,8.68
2023-02-22T07:14:13.284Z,8.70
2023-02-22T07:14:45.146Z,8.77
2023-02-22T07:15:18.790Z,8.80
2023-02-22T07:15:50.576Z,8.87
2023-02-22T07:16:22.467Z,8.92
2023-02-22T07:16:54.370Z,8.98
2023-02-22T07:17:26.211Z,9.02
2023-02-22T07:17:58.096Z,9.09
2023-02-22T07:18:30.955Z,9.18
2023-02-22T07:19:03.091Z,9.31
2023-02-22T07:19:34.910Z,9.39
2023-02-22T07:20:07.599Z,9.49
2023-02-22T07:20:39.734Z,9.56
2023-02-22T07:21:11.574Z,9.62
2023-02-22T07:21:43.438Z,9.69
2023-02-22T07:22:15.229Z,9.74
2023-02-22T07:22:48.385Z,9.83
2023-02-22T07:23:21.149Z,9.89
2023-02-22T07:23:55.264Z,9.94
2023-02-22T07:24:30.701Z,9.94
2023-02-22T07:25:02.588Z,9.98
2023-02-22T07:25:35.170Z,10.06
2023-02-22T07:26:25.184Z,10.21
2023-02-22T07:26:57.081Z,10.33
2023-02-22T07:27:28.882Z,10.41
2023-02-22T07:28:00.772Z,10.50
2023-02-22T07:28:32.809Z,10.56
2023-02-22T07:29:04.585Z,10.65
2023-02-22T07:29:36.379Z,10.69
2023-02-22T07:30:19.307Z,10.84
2023-02-22T07:30:51.252Z,10.89
2023-02-22T07:31:23.415Z,10.96
2023-02-22T07:31:55.907Z,11.04
2023-02-22T07:32:27.775Z,10.99
2023-02-22T07:33:11.396Z,11.08
2023-02-22T07:33:43.265Z,10.96
2023-02-22T07:34:15.333Z,10.88
2023-02-22T07:34:47.125Z,10.87
2023-02-22T07:35:23.037Z,10.93
2023-02-22T07:35:54.931Z,10.80
2023-02-22T07:36:26.726Z,10.72
2023-02-22T07:36:58.489Z,10.79
2023-02-22T07:37:30.493Z,10.74
2023-02-22T07:38:03.051Z,10.76
2023-02-22T07:38:34.877Z,10.71
2023-02-22T07:39:08.878Z,10.72
2023-02-22T07:39:43.934Z,10.72
2023-02-22T07:40:18.423Z,10.60
2023-02-22T07:40:50.253Z,10.60
2023-02-22T07:41:22.998Z,10.63
2023-02-22T07:41:54.816Z,10.68
2023-02-22T07:42:26.612Z,10.78
2023-02-22T07:43:06.924Z,10.84
2023-02-22T07:43:38.995Z,10.70
2023-02-22T07:44:10.790Z,10.84
2023-02-22T07:44:42.571Z,10.98
2023-02-22T07:45:15.018Z,10.98
2023-02-22T07:45:48.599Z,11.12
2023-02-22T07:46:20.436Z,11.26
2023-02-22T07:46:52.404Z,11.35
2023-02-22T07:47:24.247Z,11.47
2023-02-22T07:47:56.611Z,11.51
2023-02-22T07:48:30.584Z,11.54
2023-02-22T07:49:02.385Z,11.60
2023-02-22T07:49:34.217Z,11.64
2023-02-22T07:50:06.181Z,11.70
2023-02-22T07:50:38.206Z,11.78
2023-02-22T07:51:10.278Z,11.82
2023-02-22T07:51:42.117Z,11.75
2023-02-22T07:52:15.212Z,11.84
2023-02-22T07:52:53.353Z,11.86
2023-02-22T07:53:30.976Z,11.88
2023-02-22T07:54:02.769Z,11.88
2023-02-22T07:54:34.531Z,12.04
2023-02-22T07:55:07.228Z,12.10
2023-02-22T07:55:39.007Z,12.27
2023-02-22T07:56:10.831Z,12.46
2023-02-22T07:56:47.570Z,12.63
2023-02-22T07:57:19.365Z,12.58
2023-02-22T07:57:52.970Z,12.65
2023-02-22T07:58:26.918Z,12.69
2023-02-22T07:58:58.771Z,12.79
2023-02-22T07:59:30.638Z,12.87
2023-02-22T08:00:02.478Z,12.83
2023-02-22T08:00:37.782Z,12.87
2023-02-22T08:01:10.367Z,12.88
2023-02-22T08:01:42.365Z,12.94
2023-02-22T08:02:17.339Z,13.01
2023-02-22T08:02:49.236Z,13.06
2023-02-22T08:03:24.487Z,13.20
2023-02-22T08:03:56.484Z,13.19
2023-02-22T08:04:28.599Z,13.12